Time;durP1;ratioP1;P1;durP2;ratioP2;P2;SDS_P1;SDS_P2;PMS_P1;PMS_P2;Temp;Humidity;BMP_temperature;BMP_pressure;BME280_temperature;BME280_humidity;BME280_pressure;Samples;Min_cycle;Max_cycle;Signal;HPM_P1;HPM_P2
2023/01/29 06:29:47;;;;;;;42.03;35.22;;;-0.80;99.90;;;;;;5426060;24;20056;-70
2023/01/29 06:32:13;;;;;;;47.38;40.67;;;-0.70;99.90;;;;;;4826514;29;20348;-71
2023/01/29 06:34:39;;;;;;;43.40;37.65;;;-0.70;99.90;;;;;;4829279;29;20070;-70
2023/01/29 06:37:06;;;;;;;47.22;39.25;;;-0.70;99.90;;;;;;4818828;29;20039;-71
2023/01/29 06:39:32;;;;;;;48.67;41.13;;;-0.70;99.90;;;;;;4837954;29;20090;-72
2023/01/29 06:41:58;;;;;;;45.92;35.80;;;-0.60;99.90;;;;;;4830156;29;20039;-72
2023/01/29 06:44:24;;;;;;;48.05;40.05;;;-0.60;99.90;;;;;;4829636;29;20042;-70
2023/01/29 06:46:50;;;;;;;45.03;39.00;;;-0.60;99.90;;;;;;4837923;29;20059;-70
2023/01/29 06:49:16;;;;;;;46.28;41.05;;;-0.60;99.90;;;;;;4836788;29;20064;-70
2023/01/29 06:51:42;;;;;;;45.10;36.22;;;-0.60;99.90;;;;;;4837823;29;20583;-71
2023/01/29 06:54:09;;;;;;;43.90;36.85;;;-0.60;99.90;;;;;;4837899;29;20056;-70
2023/01/29 06:56:35;;;;;;;47.92;40.53;;;-0.60;99.90;;;;;;4836647;29;20060;-72
2023/01/29 06:59:01;;;;;;;42.05;35.33;;;-0.60;99.90;;;;;;4836375;29;20034;-70
2023/01/29 07:01:27;;;;;;;42.25;36.35;;;-0.60;99.90;;;;;;4821418;29;20031;-72
2023/01/29 07:03:53;;;;;;;69.35;58.92;;;-0.50;99.90;;;;;;4818416;29;20083;-70
2023/01/29 07:06:19;;;;;;;45.50;37.60;;;-0.50;99.90;;;;;;4829271;29;20282;-70
2023/01/29 07:08:45;;;;;;;49.47;41.25;;;-0.50;99.90;;;;;;4855531;29;20526;-72
2023/01/29 07:11:12;;;;;;;38.78;31.75;;;-0.50;99.90;;;;;;4819326;29;20115;-72
2023/01/29 07:13:38;;;;;;;44.30;32.92;;;-0.40;99.90;;;;;;4817947;29;20035;-72
2023/01/29 07:16:05;;;;;;;48.85;42.13;;;-0.40;99.90;;;;;;4820374;29;20126;-72
2023/01/29 07:18:32;;;;;;;42.65;37.92;;;-0.40;99.90;;;;;;4819227;29;20035;-72
2023/01/29 07:20:57;;;;;;;38.20;33.85;;;-0.30;99.90;;;;;;4818036;29;20035;-72
2023/01/29 07:23:24;;;;;;;39.03;33.53;;;-0.30;99.90;;;;;;4819352;29;20041;-71
2023/01/29 07:25:50;;;;;;;41.72;37.38;;;-0.30;99.90;;;;;;4806462;29;20038;-72
2023/01/29 07:28:17;;;;;;;42.15;36.85;;;-0.20;99.90;;;;;;4854883;29;20037;-72
2023/01/29 07:30:43;;;;;;;51.20;39.33;;;-0.20;99.90;;;;;;4850736;29;20075;-72
2023/01/29 07:33:10;;;;;;;44.22;36.78;;;-0.20;99.90;;;;;;4836164;29;20511;-72
2023/01/29 07:35:38;;;;;;;35.40;31.58;;;-0.10;99.90;;;;;;4819245;29;20027;-72
2023/01/29 07:38:05;;;;;;;42.28;35.05;;;-0.10;99.90;;;;;;4837261;29;20031;-72
2023/01/29 07:40:30;;;;;;;41.22;36.25;;;-0.10;99.90;;;;;;4820605;29;20129;-72
2023/01/29 07:42:58;;;;;;;40.42;32.88;;;0.00;99.90;;;;;;4836675;29;20397;-72
2023/01/29 07:45:24;;;;;;;44.83;38.28;;;0.10;99.90;;;;;;4835104;29;20063;-72
2023/01/29 07:47:54;;;;;;;44.88;39.28;;;0.00;99.90;;;;;;4835004;29;20042;-72
2023/01/29 07:50:20;;;;;;;;;;;0.10;99.90;;;;;;4821562;29;20042;-70
2023/01/29 07:52:46;;;;;;;41.75;34.85;;;0.10;99.90;;;;;;4817261;29;20433;-72
2023/01/29 07:55:12;;;;;;;40.72;36.50;;;0.10;99.90;;;;;;4819550;29;20039;-72
2023/01/29 07:57:38;;;;;;;40.83;34.78;;;0.10;99.90;;;;;;4816865;29;20038;-71
2023/01/29 08:00:04;;;;;;;37.20;33.40;;;0.20;99.90;;;;;;4832631;29;20046;-70
2023/01/29 08:02:38;;;;;;;41.63;33.30;;;0.20;99.90;;;;;;4836819;29;20039;-70
2023/01/29 08:05:04;;;;;;;38.72;32.33;;;0.10;99.90;;;;;;4816563;29;20110;-72
2023/01/29 08:07:30;;;;;;;41.88;32.95;;;0.20;99.90;;;;;;4832035;29;20084;-72
2023/01/29 08:09:56;;;;;;;35.03;31.08;;;0.20;99.90;;;;;;4835193;29;20038;-72
2023/01/29 08:12:21;;;;;;;38.78;32.40;;;0.20;99.90;;;;;;4836354;29;20035;-72
2023/01/29 08:14:47;;;;;;;35.75;31.88;;;0.30;99.90;;;;;;4809951;29;20051;-72
2023/01/29 08:17:13;;;;;;;38.63;32.05;;;0.20;99.90;;;;;;4817162;29;20042;-72
2023/01/29 08:19:39;;;;;;;38.70;32.35;;;0.30;99.90;;;;;;4819766;29;20035;-72
2023/01/29 08:22:05;;;;;;;38.80;30.90;;;0.20;99.90;;;;;;4836609;29;20069;-70
2023/01/29 08:24:32;;;;;;;37.17;33.33;;;0.30;99.90;;;;;;4828745;29;20042;-72
2023/01/29 08:26:58;;;;;;;36.05;29.88;;;0.30;99.90;;;;;;4830670;29;20393;-70
2023/01/29 08:29:24;;;;;;;39.90;32.10;;;0.40;99.90;;;;;;4845114;29;20030;-72
2023/01/29 08:31:50;;;;;;;37.78;32.15;;;0.30;99.90;;;;;;4820008;29;20094;-72
2023/01/29 08:34:16;;;;;;;34.45;30.85;;;0.30;99.90;;;;;;4816047;29;20041;-72
2023/01/29 08:36:42;;;;;;;37.65;32.00;;;0.30;99.90;;;;;;4818060;29;20031;-72
2023/01/29 08:39:08;;;;;;;42.85;34.33;;;0.40;99.90;;;;;;4824131;29;20046;-71
2023/01/29 08:41:34;;;;;;;36.47;27.83;;;0.30;99.90;;;;;;4835031;29;20037;-72
2023/01/29 08:44:01;;;;;;;42.65;31.55;;;0.30;99.90;;;;;;4801371;29;20042;-70
2023/01/29 08:46:27;;;;;;;33.38;29.08;;;0.30;99.90;;;;;;4816636;29;20046;-72
2023/01/29 08:48:54;;;;;;;36.60;31.05;;;0.30;99.90;;;;;;4820568;29;20390;-72
2023/01/29 08:51:20;;;;;;;39.40;30.50;;;0.30;99.90;;;;;;4834899;29;20371;-72
2023/01/29 08:53:46;;;;;;;41.53;30.40;;;0.30;99.90;;;;;;4835258;29;20053;-72
2023/01/29 08:56:12;;;;;;;39.72;30.50;;;0.30;99.90;;;;;;4834570;29;20481;-71
2023/01/29 08:58:37;;;;;;;32.53;28.85;;;0.30;99.90;;;;;;4820259;29;20034;-72
2023/01/29 09:01:12;;;;;;;40.97;33.50;;;0.30;99.90;;;;;;4839621;29;20039;-70
2023/01/29 09:03:42;;;;;;;43.42;38.10;;;0.40;99.90;;;;;;4837823;29;20062;-72
2023/01/29 09:06:10;;;;;;;35.65;31.45;;;0.40;99.90;;;;;;4821013;29;20038;-72
2023/01/29 09:08:36;;;;;;;35.50;31.60;;;0.50;99.90;;;;;;4834868;29;20043;-72
2023/01/29 09:11:02;;;;;;;32.72;29.17;;;0.50;99.90;;;;;;4837774;29;20418;-72
2023/01/29 09:13:28;;;;;;;37.13;27.90;;;0.50;99.90;;;;;;4837247;29;20050;-72
2023/01/29 09:15:57;;;;;;;37.03;33.03;;;0.50;99.90;;;;;;4837085;29;20030;-72
2023/01/29 09:18:23;;;;;;;32.60;28.95;;;0.60;99.90;;;;;;4839057;29;20101;-72
2023/01/29 09:20:49;;;;;;;30.40;26.83;;;0.60;99.90;;;;;;4839064;29;20038;-72
2023/01/29 09:23:15;;;;;;;36.55;32.67;;;0.80;99.90;;;;;;4839300;29;20045;-72
2023/01/29 09:25:42;;;;;;;40.90;32.33;;;0.70;99.90;;;;;;4824781;29;20043;-72
2023/01/29 09:28:08;;;;;;;36.53;32.00;;;0.80;99.90;;;;;;4849333;29;20558;-72
2023/01/29 09:30:36;;;;;;;36.33;30.20;;;0.70;99.90;;;;;;4841263;29;20058;-72
2023/01/29 09:33:03;;;;;;;35.30;31.55;;;0.80;99.90;;;;;;4839048;29;20929;-72
2023/01/29 09:35:29;;;;;;;41.72;36.20;;;0.80;99.90;;;;;;4826513;29;20394;-72
2023/01/29 09:37:56;;;;;;;35.58;30.33;;;0.80;99.90;;;;;;4821099;29;20035;-70
2023/01/29 09:40:37;;;;;;;39.63;32.47;;;0.80;99.90;;;;;;4832074;29;20041;-72
2023/01/29 09:43:22;;;;;;;49.15;39.58;;;0.90;99.90;;;;;;4838952;29;20042;-72
2023/01/29 09:46:12;;;;;;;39.85;32.25;;;0.90;99.90;;;;;;4838171;29;20114;-72
2023/01/29 09:48:39;;;;;;;42.05;31.05;;;1.00;99.90;;;;;;4827859;29;20038;-72
2023/01/29 09:51:20;;;;;;;40.05;35.63;;;1.00;99.90;;;;;;4837066;29;20113;-72
2023/01/29 09:53:52;;;;;;;43.50;35.20;;;1.00;99.90;;;;;;4832649;29;20118;-72
2023/01/29 09:56:20;;;;;;;37.45;32.20;;;1.00;99.90;;;;;;4838801;29;20031;-72
2023/01/29 09:58:47;;;;;;;43.22;34.38;;;1.10;99.90;;;;;;4838654;29;20037;-72
2023/01/29 10:01:30;;;;;;;43.08;33.60;;;1.10;99.90;;;;;;4837340;29;20033;-72
2023/01/29 10:04:27;;;;;;;39.17;29.52;;;1.20;99.90;;;;;;4837762;29;20055;-72
2023/01/29 10:07:25;;;;;;;33.25;29.70;;;1.20;99.90;;;;;;4838035;29;20045;-70
2023/01/29 10:09:51;;;;;;;40.40;32.00;;;1.20;99.90;;;;;;4838001;29;20413;-72
2023/01/29 10:12:42;;;;;;;35.90;32.00;;;1.20;99.90;;;;;;4836197;29;20039;-72
2023/01/29 10:15:16;;;;;;;37.83;30.92;;;1.30;99.90;;;;;;4837025;29;20068;-70
2023/01/29 10:17:51;;;;;;;44.33;36.78;;;1.30;99.90;;;;;;4838495;29;20113;-70
2023/01/29 10:20:35;;;;;;;39.30;29.30;;;1.40;99.90;;;;;;4837210;29;20523;-71
2023/01/29 10:23:31;;;;;;;35.40;31.75;;;1.40;99.90;;;;;;4836257;29;20035;-70
2023/01/29 10:25:57;;;;;;;37.25;31.00;;;1.40;99.90;;;;;;4838147;29;20042;-70
2023/01/29 10:28:47;;;;;;;36.45;30.45;;;1.40;99.90;;;;;;4852682;29;20093;-72
2023/01/29 10:31:26;;;;;;;39.13;31.23;;;1.50;99.90;;;;;;4823499;29;20054;-71
2023/01/29 10:34:02;;;;;;;24.38;21.02;;;1.50;99.90;;;;;;4830069;29;20103;-72
2023/01/29 10:36:41;;;;;;;36.22;32.15;;;1.50;99.90;;;;;;4837862;29;20041;-72
2023/01/29 10:39:20;;;;;;;35.10;29.77;;;1.60;99.90;;;;;;4838029;29;20062;-72
2023/01/29 10:42:14;;;;;;;27.40;24.53;;;1.70;99.90;;;;;;4836600;29;20054;-73
2023/01/29 10:45:08;;;;;;;35.20;30.00;;;1.70;99.90;;;;;;4836109;29;20443;-72
2023/01/29 10:48:07;;;;;;;35.72;28.27;;;1.70;99.90;;;;;;4838051;29;20082;-72
2023/01/29 10:50:56;;;;;;;31.60;27.90;;;1.80;99.90;;;;;;4837938;29;20040;-73
2023/01/29 10:53:51;;;;;;;33.83;28.45;;;1.90;99.90;;;;;;4836165;29;20042;-71
2023/01/29 10:56:41;;;;;;;39.38;31.60;;;1.80;99.90;;;;;;4843863;29;20049;-72
2023/01/29 10:59:29;;;;;;;35.65;30.95;;;1.90;99.90;;;;;;4836428;29;20031;-71
2023/01/29 11:01:59;;;;;;;32.05;28.63;;;2.00;99.90;;;;;;4837748;29;20058;-72
2023/01/29 11:04:27;;;;;;;30.65;27.33;;;2.00;99.90;;;;;;4828654;29;20035;-72
2023/01/29 11:06:53;;;;;;;39.70;29.67;;;2.00;99.90;;;;;;4836469;29;20046;-72
2023/01/29 11:09:35;;;;;;;30.75;25.08;;;2.00;99.90;;;;;;4837439;29;20035;-71
2023/01/29 11:12:18;;;;;;;34.33;26.80;;;2.00;99.90;;;;;;4836332;29;21029;-72
2023/01/29 11:14:56;;;;;;;28.50;25.52;;;2.00;99.90;;;;;;4836810;29;20091;-72
2023/01/29 11:17:24;;;;;;;33.72;28.40;;;2.00;99.90;;;;;;4837430;29;20030;-72
2023/01/29 11:19:51;;;;;;;33.67;26.75;;;2.00;99.90;;;;;;4836471;29;20065;-71
2023/01/29 11:22:24;;;;;;;30.90;24.65;;;2.10;99.90;;;;;;4835989;29;20030;-72
2023/01/29 11:25:16;;;;;;;32.30;27.48;;;2.20;99.90;;;;;;4834372;29;20029;-72
2023/01/29 11:27:49;;;;;;;32.47;28.48;;;2.20;99.90;;;;;;4819531;29;20041;-72
2023/01/29 11:30:21;;;;;;;28.33;24.27;;;2.20;99.90;;;;;;4830977;29;20111;-72
2023/01/29 11:33:08;;;;;;;28.73;25.77;;;2.20;99.90;;;;;;4830810;29;20034;-72
2023/01/29 11:35:35;;;;;;;34.80;29.70;;;2.20;99.90;;;;;;4836586;29;20036;-72
2023/01/29 11:38:23;;;;;;;30.23;25.23;;;2.20;99.90;;;;;;4837162;29;20030;-72
2023/01/29 11:40:49;;;;;;;31.02;27.65;;;2.30;99.90;;;;;;4831746;29;20083;-73
2023/01/29 11:43:31;;;;;;;33.50;26.33;;;2.30;99.90;;;;;;4823695;29;20043;-72
2023/01/29 11:46:03;;;;;;;29.30;26.30;;;2.40;99.90;;;;;;4829252;29;20076;-72
2023/01/29 11:48:46;;;;;;;26.65;22.83;;;2.50;99.90;;;;;;4833473;29;20037;-72
2023/01/29 11:51:25;;;;;;;36.15;32.25;;;2.50;99.90;;;;;;4836655;29;20042;-72
2023/01/29 11:54:01;;;;;;;28.75;26.05;;;2.60;99.90;;;;;;4826859;29;20046;-72
2023/01/29 11:56:43;;;;;;;28.77;24.38;;;2.50;99.90;;;;;;4831072;29;20043;-72
2023/01/29 11:59:33;;;;;;;32.58;25.65;;;2.60;99.90;;;;;;4818894;29;20042;-73
2023/01/29 12:02:18;;;;;;;;;;;2.60;99.90;;;;;;4835433;29;20070;-73
2023/01/29 12:04:45;;;;;;;29.98;24.38;;;2.70;99.90;;;;;;4837039;29;19913;-73
2023/01/29 12:07:14;;;;;;;24.52;21.35;;;2.80;99.90;;;;;;4817975;29;20037;-72
2023/01/29 12:09:40;;;;;;;32.95;24.83;;;2.70;99.90;;;;;;4836345;29;20071;-73
2023/01/29 12:12:34;;;;;;;30.88;27.88;;;2.70;99.90;;;;;;4835356;29;20038;-73
2023/01/29 12:15:07;;;;;;;24.95;22.10;;;2.80;99.90;;;;;;4836221;29;20030;-73
2023/01/29 12:17:37;;;;;;;42.40;34.85;;;2.90;99.90;;;;;;4836853;29;20034;-73
2023/01/29 12:20:15;;;;;;;24.83;21.75;;;3.00;99.90;;;;;;4835349;29;20163;-73
2023/01/29 12:23:16;;;;;;;27.70;23.60;;;3.10;99.90;;;;;;4836568;29;20042;-73
2023/01/29 12:26:00;;;;;;;26.67;19.95;;;3.10;99.90;;;;;;4836341;29;20026;-73
2023/01/29 12:28:43;;;;;;;28.48;23.77;;;3.10;99.90;;;;;;4836745;29;20117;-73
2023/01/29 12:31:28;;;;;;;26.98;20.70;;;3.20;99.90;;;;;;4835094;29;20402;-73
2023/01/29 12:34:38;;;;;;;26.27;21.33;;;3.30;99.90;;;;;;4830664;29;20048;-73
2023/01/29 12:37:18;;;;;;;28.67;22.80;;;3.30;99.90;;;;;;4850634;29;20053;-73
2023/01/29 12:39:44;;;;;;;24.83;19.40;;;3.30;99.90;;;;;;4837076;29;20109;-73
2023/01/29 12:42:21;;;;;;;29.15;23.85;;;3.30;99.90;;;;;;4835162;29;20046;-73
2023/01/29 12:44:53;;;;;;;21.60;19.25;;;3.50;99.90;;;;;;4836163;29;20091;-73
2023/01/29 12:47:28;;;;;;;26.17;18.75;;;3.60;99.90;;;;;;4835533;29;20113;-73
2023/01/29 12:49:59;;;;;;;25.10;21.95;;;3.50;99.90;;;;;;4834784;29;20034;-73
2023/01/29 12:52:45;;;;;;;26.67;19.27;;;3.40;99.90;;;;;;4833666;29;20037;-73
2023/01/29 12:55:47;;;;;;;23.05;19.42;;;3.50;99.90;;;;;;4834783;29;20051;-73
2023/01/29 12:58:20;;;;;;;36.75;27.92;;;3.50;99.90;;;;;;4818925;29;20043;-73
2023/01/29 13:00:50;;;;;;;28.02;18.92;;;3.50;99.90;;;;;;4836350;29;20410;-73
2023/01/29 13:03:31;;;;;;;20.23;18.02;;;3.40;99.90;;;;;;4833221;29;20042;-73
2023/01/29 13:06:02;;;;;;;25.38;19.27;;;3.50;99.90;;;;;;4833578;29;20049;-73
2023/01/29 13:08:38;;;;;;;27.13;21.10;;;3.40;99.90;;;;;;4835892;29;20037;-73
2023/01/29 13:11:14;;;;;;;21.52;17.90;;;3.30;99.90;;;;;;4835717;29;20521;-73
2023/01/29 13:14:03;;;;;;;22.20;19.67;;;3.30;99.90;;;;;;4819561;29;20472;-73
2023/01/29 13:16:37;;;;;;;27.30;21.75;;;3.30;99.90;;;;;;4834093;29;20479;-73
2023/01/29 13:19:28;;;;;;;29.98;19.15;;;3.30;99.90;;;;;;4819501;29;20091;-73
2023/01/29 13:21:58;;;;;;;23.30;20.48;;;3.20;99.90;;;;;;4834069;29;20045;-73
2023/01/29 13:24:26;;;;;;;;;;;3.20;99.90;;;;;;4835079;29;20046;-73
2023/01/29 13:26:52;;;;;;;21.70;18.15;;;3.20;99.90;;;;;;4816832;29;19988;-73
2023/01/29 13:29:28;;;;;;;25.80;19.15;;;3.10;99.90;;;;;;4851025;29;20507;-73
2023/01/29 13:31:59;;;;;;;25.17;21.23;;;3.10;99.90;;;;;;4841359;29;20034;-73
2023/01/29 13:34:28;;;;;;;23.25;18.92;;;3.10;99.90;;;;;;4819612;29;20060;-73
2023/01/29 13:37:00;;;;;;;21.67;19.38;;;3.20;99.90;;;;;;4835000;29;20414;-73
2023/01/29 13:39:43;;;;;;;19.65;17.58;;;3.20;99.90;;;;;;4835725;29;20098;-73
2023/01/29 13:42:22;;;;;;;28.17;24.77;;;3.20;99.90;;;;;;4835659;29;20036;-73
2023/01/29 13:44:52;;;;;;;21.60;19.38;;;3.10;99.90;;;;;;4834044;29;20038;-73
2023/01/29 13:47:26;;;;;;;23.98;20.25;;;3.10;99.90;;;;;;4838513;29;20031;-73
2023/01/29 13:50:02;;;;;;;29.45;22.02;;;3.10;99.90;;;;;;4838937;29;20034;-73
2023/01/29 13:52:43;;;;;;;25.75;20.73;;;3.10;99.90;;;;;;4837505;29;20038;-73
2023/01/29 13:55:20;;;;;;;26.15;20.48;;;3.10;99.90;;;;;;4838010;29;20023;-73
2023/01/29 13:57:49;;;;;;;28.38;23.10;;;3.10;99.90;;;;;;4837208;29;20039;-73
2023/01/29 14:00:21;;;;;;;27.33;22.20;;;3.20;99.90;;;;;;4837422;29;20034;-73
2023/01/29 14:02:53;;;;;;;25.50;21.58;;;3.30;99.90;;;;;;4853664;29;20038;-73
2023/01/29 14:05:54;;;;;;;30.00;22.73;;;3.20;99.90;;;;;;4833915;29;20053;-73
2023/01/29 14:08:38;;;;;;;23.08;20.45;;;3.20;99.90;;;;;;4837002;29;20046;-73
2023/01/29 14:11:16;;;;;;;24.38;21.63;;;3.20;99.90;;;;;;4822678;29;20039;-73
2023/01/29 14:13:46;;;;;;;25.70;22.95;;;3.20;99.90;;;;;;4834321;29;20034;-73
2023/01/29 14:16:12;;;;;;;30.27;26.38;;;3.10;99.90;;;;;;4838514;29;20026;-73
2023/01/29 14:18:54;;;;;;;22.92;20.60;;;3.20;99.90;;;;;;4836970;29;20054;-73
2023/01/29 14:21:30;;;;;;;30.20;25.30;;;3.20;99.90;;;;;;4837835;29;20031;-73
2023/01/29 14:23:59;;;;;;;26.40;22.05;;;3.20;99.90;;;;;;4826744;29;20042;-73
2023/01/29 14:26:31;;;;;;;25.48;22.05;;;3.20;99.90;;;;;;4838204;29;20039;-73
2023/01/29 14:29:11;;;;;;;28.73;19.88;;;3.20;99.90;;;;;;4838277;29;20038;-73
2023/01/29 14:31:42;;;;;;;27.75;24.75;;;3.20;99.90;;;;;;4838036;29;20050;-73
2023/01/29 14:34:34;;;;;;;26.10;23.33;;;3.20;99.90;;;;;;4838416;29;20118;-73
2023/01/29 14:37:02;;;;;;;30.65;22.95;;;3.20;99.90;;;;;;4838504;29;20478;-73
2023/01/29 14:39:53;;;;;;;30.30;24.13;;;3.20;99.90;;;;;;4835820;29;20030;-73
2023/01/29 14:42:27;;;;;;;26.40;20.17;;;3.20;99.90;;;;;;4823960;29;20047;-73
2023/01/29 14:44:53;;;;;;;26.20;23.08;;;3.20;99.90;;;;;;4819978;29;20039;-73
2023/01/29 14:47:31;;;;;;;27.95;25.10;;;3.20;99.90;;;;;;4803659;29;20076;-73
2023/01/29 14:50:18;;;;;;;26.00;23.25;;;3.20;99.90;;;;;;4826728;29;20569;-73
2023/01/29 14:52:46;;;;;;;26.30;23.45;;;3.20;99.90;;;;;;4830087;29;20043;-73
2023/01/29 14:55:35;;;;;;;29.23;24.80;;;3.20;99.90;;;;;;4818668;29;20038;-73
2023/01/29 14:58:02;;;;;;;26.65;21.55;;;3.30;99.90;;;;;;4835964;29;20051;-73
2023/01/29 15:00:33;;;;;;;27.77;22.30;;;3.30;99.90;;;;;;4837093;29;20033;-73
2023/01/29 15:03:01;;;;;;;26.92;21.80;;;3.30;99.90;;;;;;4830697;29;20033;-73
2023/01/29 15:05:34;;;;;;;23.83;21.30;;;3.30;99.90;;;;;;4848296;29;20038;-73
2023/01/29 15:08:28;;;;;;;27.50;23.45;;;3.30;99.90;;;;;;4856243;29;20041;-73
2023/01/29 15:14:10;;;;;;;24.67;22.27;;;3.40;99.90;;;;;;4821833;29;20034;-73
2023/01/29 15:17:03;;;;;;;30.73;24.13;;;3.40;99.90;;;;;;4837576;29;20034;-73
2023/01/29 15:19:43;;;;;;;37.55;28.13;;;3.40;99.90;;;;;;4836909;29;20053;-73
2023/01/29 15:22:17;;;;;;;28.25;25.25;;;3.40;99.90;;;;;;4837115;29;20062;-73
2023/01/29 15:24:45;;;;;;;27.67;21.20;;;3.30;99.90;;;;;;4820194;29;20030;-73
2023/01/29 15:27:19;;;;;;;30.85;24.85;;;3.30;99.90;;;;;;4839709;29;20061;-73
2023/01/29 15:29:56;;;;;;;27.63;22.30;;;3.30;99.90;;;;;;4848835;29;20065;-73
2023/01/29 15:32:39;;;;;;;71.03;56.50;;;3.30;99.90;;;;;;4836581;29;20034;-73
2023/01/29 15:35:32;;;;;;;34.03;29.17;;;3.30;99.90;;;;;;4844368;29;20064;-73
2023/01/29 15:38:25;;;;;;;88.68;56.53;;;3.30;99.90;;;;;;4848376;29;20045;-73
2023/01/29 15:40:56;;;;;;;58.60;43.35;;;3.30;99.90;;;;;;4844834;29;20455;-73
2023/01/29 15:43:57;;;;;;;37.13;29.02;;;3.20;99.90;;;;;;4834271;29;20069;-73
2023/01/29 15:46:32;;;;;;;29.60;26.05;;;3.30;99.90;;;;;;4846945;29;20029;-73
2023/01/29 15:49:04;;;;;;;24.48;21.88;;;3.30;99.90;;;;;;4840714;29;20041;-73
2023/01/29 15:51:31;;;;;;;29.45;24.48;;;3.20;99.90;;;;;;4824472;29;20086;-73
2023/01/29 15:54:00;;;;;;;29.23;23.75;;;3.20;99.90;;;;;;4852963;29;20079;-73
2023/01/29 15:56:32;;;;;;;28.13;22.67;;;3.10;99.90;;;;;;4839108;29;20050;-73
2023/01/29 15:59:02;;;;;;;29.70;22.65;;;3.10;99.90;;;;;;4850742;29;20433;-73
2023/01/29 16:01:28;;;;;;;31.42;22.42;;;3.20;99.90;;;;;;4850287;29;20058;-73
2023/01/29 16:03:57;;;;;;;24.38;21.83;;;3.10;99.90;;;;;;4846612;29;20038;-73
2023/01/29 16:06:23;;;;;;;28.23;23.58;;;3.10;99.90;;;;;;4846530;29;20101;-73
2023/01/29 16:08:53;;;;;;;25.70;20.17;;;3.10;99.90;;;;;;4840472;29;20030;-73
2023/01/29 16:11:20;;;;;;;21.65;19.38;;;3.10;99.90;;;;;;4838688;29;20110;-73
2023/01/29 16:13:48;;;;;;;26.02;20.65;;;3.10;99.90;;;;;;4847109;29;20439;-73
2023/01/29 16:16:14;;;;;;;25.98;22.95;;;3.10;99.90;;;;;;4846102;29;20102;-73
2023/01/29 16:18:47;;;;;;;27.58;24.90;;;3.10;99.90;;;;;;4835220;29;20034;-73
2023/01/29 16:21:39;;;;;;;25.65;23.02;;;3.10;99.90;;;;;;4836609;29;20482;-72
2023/01/29 16:24:12;;;;;;;32.70;26.83;;;3.10;99.90;;;;;;4839845;29;20038;-73
2023/01/29 16:26:43;;;;;;;29.25;24.42;;;3.10;99.90;;;;;;4845978;29;20022;-73
2023/01/29 16:29:13;;;;;;;28.40;25.17;;;3.10;99.90;;;;;;4854741;29;20026;-73
2023/01/29 16:31:40;;;;;;;;;;;3.10;99.90;;;;;;4854909;29;20049;-73
2023/01/29 16:34:15;;;;;;;24.05;20.02;;;3.10;99.90;;;;;;4854696;29;19913;-73
2023/01/29 16:36:48;;;;;;;25.20;19.25;;;3.10;99.90;;;;;;4850636;29;20034;-73
2023/01/29 16:39:23;;;;;;;22.55;20.05;;;3.10;99.90;;;;;;4836295;29;20038;-73
2023/01/29 16:42:09;;;;;;;27.67;23.77;;;3.10;99.90;;;;;;4835341;29;20212;-73
2023/01/29 16:45:01;;;;;;;23.45;19.80;;;3.00;99.90;;;;;;4835270;29;20049;-73
2023/01/29 16:47:37;;;;;;;25.95;22.85;;;3.00;99.90;;;;;;4819636;29;20046;-73
2023/01/29 16:50:25;;;;;;;27.83;20.63;;;3.00;99.90;;;;;;4834668;29;20391;-73
2023/01/29 16:52:57;;;;;;;22.23;19.90;;;3.00;99.90;;;;;;4837859;29;20046;-73
2023/01/29 16:55:24;;;;;;;22.98;20.60;;;3.00;99.90;;;;;;4835209;29;20109;-73
2023/01/29 16:57:54;;;;;;;24.17;19.25;;;3.00;99.90;;;;;;4838298;29;20037;-73
2023/01/29 17:00:26;;;;;;;31.08;17.35;;;3.00;99.90;;;;;;4841331;29;20026;-73
2023/01/29 17:03:01;;;;;;;22.27;17.30;;;3.00;99.90;;;;;;4828397;29;20034;-73
2023/01/29 17:05:30;;;;;;;18.63;16.55;;;3.00;99.90;;;;;;4839691;29;20034;-73
2023/01/29 17:07:57;;;;;;;21.63;18.63;;;3.10;99.90;;;;;;4835876;29;20034;-72
2023/01/29 17:10:25;;;;;;;19.13;16.23;;;3.10;99.90;;;;;;4821673;29;20042;-72
2023/01/29 17:13:06;;;;;;;20.30;16.92;;;3.10;99.90;;;;;;4836150;29;20042;-72
2023/01/29 17:15:43;;;;;;;26.35;19.73;;;3.00;99.90;;;;;;4842860;29;20393;-71
2023/01/29 17:18:22;;;;;;;24.38;16.33;;;3.10;99.90;;;;;;4844217;29;20022;-72
2023/01/29 17:20:49;;;;;;;21.33;17.67;;;3.00;99.90;;;;;;4851286;29;20122;-72
2023/01/29 17:23:16;;;;;;;20.55;18.33;;;3.10;99.90;;;;;;4855209;29;20049;-73
2023/01/29 17:25:42;;;;;;;20.70;17.90;;;3.00;99.90;;;;;;4853329;29;20037;-73
2023/01/29 17:28:12;;;;;;;21.85;17.27;;;3.10;99.90;;;;;;4841804;29;20463;-72
2023/01/29 17:30:38;;;;;;;18.63;16.63;;;3.00;99.90;;;;;;4839040;29;20118;-72
2023/01/29 17:33:12;;;;;;;21.02;18.88;;;3.00;99.90;;;;;;4844504;29;20034;-72
2023/01/29 17:35:41;;;;;;;21.63;17.15;;;3.10;99.90;;;;;;4841507;29;20101;-71
2023/01/29 17:38:12;;;;;;;20.83;15.33;;;3.10;99.90;;;;;;4854913;29;20085;-71
2023/01/29 17:40:50;;;;;;;26.40;19.27;;;3.10;99.90;;;;;;4846275;29;20045;-72
2023/01/29 17:43:16;;;;;;;24.10;18.73;;;3.10;99.90;;;;;;4839807;29;20058;-72
2023/01/29 17:45:42;;;;;;;24.83;18.85;;;3.10;99.90;;;;;;4844873;29;20034;-72
2023/01/29 17:48:27;;;;;;;20.92;18.25;;;3.10;99.90;;;;;;4837614;29;20501;-72
2023/01/29 17:50:55;;;;;;;19.73;17.25;;;3.10;99.90;;;;;;4843445;29;20425;-72
2023/01/29 17:53:22;;;;;;;18.83;16.98;;;3.10;99.90;;;;;;4836858;29;20052;-72
2023/01/29 17:55:49;;;;;;;26.20;20.83;;;3.10;99.90;;;;;;4837815;29;20094;-72
2023/01/29 17:58:20;;;;;;;19.77;16.00;;;3.10;99.90;;;;;;4841744;29;20054;-72
2023/01/29 18:00:47;;;;;;;21.02;16.83;;;3.10;99.90;;;;;;4851189;29;20057;-72
2023/01/29 18:03:13;;;;;;;21.65;19.17;;;3.10;99.90;;;;;;4850311;29;20085;-72
2023/01/29 18:05:44;;;;;;;22.95;20.58;;;3.10;99.90;;;;;;4856013;29;20038;-72
2023/01/29 18:08:32;;;;;;;40.47;25.15;;;3.10;99.90;;;;;;4849853;29;20026;-72
2023/01/29 18:10:59;;;;;;;71.10;49.22;;;3.10;99.90;;;;;;4845102;29;20089;-72
2023/01/29 18:13:24;;;;;;;32.78;26.65;;;3.10;99.90;;;;;;4847433;29;20037;-72
2023/01/29 18:15:51;;;;;;;26.85;21.73;;;3.10;99.90;;;;;;4840403;29;20529;-72
2023/01/29 18:18:21;;;;;;;36.78;30.75;;;3.10;99.90;;;;;;4840397;29;20098;-72
2023/01/29 18:20:47;;;;;;;30.23;27.00;;;3.10;99.90;;;;;;4839128;29;20035;-72
2023/01/29 18:23:14;;;;;;;40.72;29.40;;;3.10;99.90;;;;;;4846480;29;20034;-72
2023/01/29 18:25:41;;;;;;;77.70;50.05;;;3.00;99.90;;;;;;4815695;29;20042;-72
2023/01/29 18:28:15;;;;;;;27.25;22.30;;;3.00;99.90;;;;;;4850299;29;20046;-72
2023/01/29 18:30:44;;;;;;;25.95;23.27;;;3.00;99.90;;;;;;4835993;29;20092;-72
2023/01/29 18:33:10;;;;;;;40.15;32.97;;;3.00;99.90;;;;;;4854640;29;20038;-72
2023/01/29 18:35:36;;;;;;;31.40;24.23;;;3.00;99.90;;;;;;4856669;29;20044;-72
2023/01/29 18:38:03;;;;;;;39.65;32.42;;;3.00;99.90;;;;;;4848174;29;20113;-72
2023/01/29 18:40:30;;;;;;;32.00;28.67;;;2.90;99.90;;;;;;4841957;29;20034;-72
2023/01/29 18:42:59;;;;;;;24.77;22.08;;;2.90;99.90;;;;;;4843638;29;20041;-72
2023/01/29 18:45:26;;;;;;;30.15;26.88;;;2.90;99.90;;;;;;4843616;29;20046;-72
2023/01/29 18:47:52;;;;;;;27.75;23.67;;;2.80;99.90;;;;;;4844528;29;20046;-72
2023/01/29 18:50:18;;;;;;;30.20;23.00;;;2.80;99.90;;;;;;4829565;29;20034;-72
2023/01/29 18:52:44;;;;;;;31.10;23.25;;;2.80;99.90;;;;;;4847709;29;20121;-72
2023/01/29 18:55:10;;;;;;;27.80;22.95;;;2.80;99.90;;;;;;4843662;29;20465;-72
2023/01/29 18:57:38;;;;;;;32.63;25.73;;;2.80;99.90;;;;;;4846591;29;20034;-72
2023/01/29 19:00:04;;;;;;;29.52;25.35;;;2.80;99.90;;;;;;4846023;29;20030;-72
2023/01/29 19:02:30;;;;;;;25.77;23.00;;;2.90;99.90;;;;;;4829582;29;20027;-72
2023/01/29 19:04:56;;;;;;;31.67;26.30;;;2.90;99.90;;;;;;4845099;29;20106;-72
2023/01/29 19:07:21;;;;;;;26.67;22.77;;;2.90;99.90;;;;;;4845583;29;20087;-72
2023/01/29 19:09:49;;;;;;;24.27;20.60;;;2.90;99.90;;;;;;4845936;29;20038;-72
2023/01/29 19:12:15;;;;;;;32.00;24.40;;;2.90;99.90;;;;;;4846201;29;20043;-72
2023/01/29 19:14:41;;;;;;;28.85;21.20;;;2.90;99.90;;;;;;4842804;29;20041;-72
2023/01/29 19:17:07;;;;;;;30.58;23.23;;;2.90;99.90;;;;;;4842240;29;20121;-72
2023/01/29 19:19:33;;;;;;;30.65;22.48;;;3.00;99.90;;;;;;4839621;29;20086;-72
2023/01/29 19:21:59;;;;;;;28.10;21.65;;;2.90;99.90;;;;;;4831763;29;20451;-72
2023/01/29 19:24:26;;;;;;;32.90;25.60;;;2.90;99.90;;;;;;4821583;29;20391;-72
2023/01/29 19:26:52;;;;;;;27.30;22.95;;;3.00;99.90;;;;;;4835883;29;20091;-72
2023/01/29 19:29:19;;;;;;;25.20;21.85;;;2.90;99.90;;;;;;4841929;29;20073;-72
2023/01/29 19:31:46;;;;;;;26.80;22.60;;;2.90;99.90;;;;;;4815620;29;20118;-72
2023/01/29 19:34:12;;;;;;;37.83;27.88;;;3.00;99.90;;;;;;4828862;29;20039;-72
2023/01/29 19:36:38;;;;;;;28.20;22.52;;;3.00;99.90;;;;;;4825424;29;20043;-72
2023/01/29 19:39:04;;;;;;;26.95;21.10;;;3.00;99.90;;;;;;4820966;29;20031;-72